sensor_id;sensor_type;location;lat;lon;timestamp;P1;durP1;ratioP1;P2;durP2;ratioP2
56136;SDS011;42008;52.934;5.884;2023-05-10T00:00:13;52.40;;;29.17;;
56136;SDS011;42008;52.934;5.884;2023-05-10T00:02:39;41.90;;;27.27;;
56136;SDS011;42008;52.934;5.884;2023-05-10T00:05:05;33.80;;;22.80;;
56136;SDS011;42008;52.934;5.884;2023-05-10T00:07:31;31.53;;;21.73;;
56136;SDS011;42008;52.934;5.884;2023-05-10T00:09:57;31.03;;;20.60;;
56136;SDS011;42008;52.934;5.884;2023-05-10T00:12:23;36.33;;;22.80;;
56136;SDS011;42008;52.934;5.884;2023-05-10T00:14:48;37.23;;;22.33;;
56136;SDS011;42008;52.934;5.884;2023-05-10T00:17:14;31.57;;;20.77;;
56136;SDS011;42008;52.934;5.884;2023-05-10T00:19:39;37.37;;;22.77;;
56136;SDS011;42008;52.934;5.884;2023-05-10T00:22:05;36.17;;;22.33;;
56136;SDS011;42008;52.934;5.884;2023-05-10T00:24:31;34.57;;;22.87;;
56136;SDS011;42008;52.934;5.884;2023-05-10T00:26:56;38.77;;;23.33;;
56136;SDS011;42008;52.934;5.884;2023-05-10T00:29:22;29.20;;;20.33;;
56136;SDS011;42008;52.934;5.884;2023-05-10T00:31:47;35.73;;;22.43;;
56136;SDS011;42008;52.934;5.884;2023-05-10T00:34:13;31.93;;;21.13;;
56136;SDS011;42008;52.934;5.884;2023-05-10T00:36:38;25.20;;;17.60;;
56136;SDS011;42008;52.934;5.884;2023-05-10T00:39:04;26.23;;;18.47;;
56136;SDS011;42008;52.934;5.884;2023-05-10T00:41:30;27.80;;;18.57;;
56136;SDS011;42008;52.934;5.884;2023-05-10T00:43:58;25.80;;;18.67;;
56136;SDS011;42008;52.934;5.884;2023-05-10T00:46:24;31.33;;;21.40;;
56136;SDS011;42008;52.934;5.884;2023-05-10T00:48:50;27.63;;;19.40;;
56136;SDS011;42008;52.934;5.884;2023-05-10T00:51:16;32.23;;;19.73;;
56136;SDS011;42008;52.934;5.884;2023-05-10T00:53:43;22.57;;;17.77;;
56136;SDS011;42008;52.934;5.884;2023-05-10T00:56:10;25.63;;;17.97;;
56136;SDS011;42008;52.934;5.884;2023-05-10T00:58:36;24.57;;;18.40;;
56136;SDS011;42008;52.934;5.884;2023-05-10T01:01:01;26.27;;;18.03;;
56136;SDS011;42008;52.934;5.884;2023-05-10T01:03:27;27.30;;;18.57;;
56136;SDS011;42008;52.934;5.884;2023-05-10T01:05:53;30.30;;;19.40;;
56136;SDS011;42008;52.934;5.884;2023-05-10T01:08:20;21.47;;;17.07;;
56136;SDS011;42008;52.934;5.884;2023-05-10T01:10:46;24.57;;;17.73;;
56136;SDS011;42008;52.934;5.884;2023-05-10T01:13:14;18.53;;;15.10;;
56136;SDS011;42008;52.934;5.884;2023-05-10T01:15:48;17.07;;;13.60;;
56136;SDS011;42008;52.934;5.884;2023-05-10T01:18:14;16.13;;;13.50;;
56136;SDS011;42008;52.934;5.884;2023-05-10T01:20:43;14.47;;;12.40;;
56136;SDS011;42008;52.934;5.884;2023-05-10T01:34:22;15.80;;;10.73;;
56136;SDS011;42008;52.934;5.884;2023-05-10T01:36:59;14.45;;;10.38;;
56136;SDS011;42008;52.934;5.884;2023-05-10T01:47:15;14.57;;;10.53;;
56136;SDS011;42008;52.934;5.884;2023-05-10T01:49:52;16.60;;;11.20;;
56136;SDS011;42008;52.934;5.884;2023-05-10T01:52:22;17.93;;;12.00;;
56136;SDS011;42008;52.934;5.884;2023-05-10T01:55:13;16.38;;;12.02;;
56136;SDS011;42008;52.934;5.884;2023-05-10T01:57:42;19.80;;;12.13;;
56136;SDS011;42008;52.934;5.884;2023-05-10T02:00:11;17.83;;;12.60;;
56136;SDS011;42008;52.934;5.884;2023-05-10T02:02:39;15.97;;;11.03;;
56136;SDS011;42008;52.934;5.884;2023-05-10T02:05:07;13.73;;;10.30;;
56136;SDS011;42008;52.934;5.884;2023-05-10T02:07:35;14.87;;;10.50;;
56136;SDS011;42008;52.934;5.884;2023-05-10T02:10:02;14.50;;;10.40;;
56136;SDS011;42008;52.934;5.884;2023-05-10T02:12:36;13.07;;;10.60;;
56136;SDS011;42008;52.934;5.884;2023-05-10T02:15:04;11.90;;;9.53;;
56136;SDS011;42008;52.934;5.884;2023-05-10T02:17:32;11.07;;;8.23;;
56136;SDS011;42008;52.934;5.884;2023-05-10T02:19:59;12.33;;;9.27;;
56136;SDS011;42008;52.934;5.884;2023-05-10T02:22:27;13.20;;;8.60;;
56136;SDS011;42008;52.934;5.884;2023-05-10T02:24:54;10.37;;;8.30;;
56136;SDS011;42008;52.934;5.884;2023-05-10T02:27:22;9.13;;;7.97;;
56136;SDS011;42008;52.934;5.884;2023-05-10T02:29:50;10.87;;;8.73;;
56136;SDS011;42008;52.934;5.884;2023-05-10T02:32:16;12.33;;;9.13;;
56136;SDS011;42008;52.934;5.884;2023-05-10T02:34:43;11.53;;;10.17;;
56136;SDS011;42008;52.934;5.884;2023-05-10T02:37:11;11.13;;;9.97;;
56136;SDS011;42008;52.934;5.884;2023-05-10T02:39:39;14.20;;;11.33;;
56136;SDS011;42008;52.934;5.884;2023-05-10T02:42:08;14.87;;;12.00;;
56136;SDS011;42008;52.934;5.884;2023-05-10T02:44:40;15.18;;;12.65;;
56136;SDS011;42008;52.934;5.884;2023-05-10T02:47:07;12.37;;;10.73;;
56136;SDS011;42008;52.934;5.884;2023-05-10T02:49:33;14.17;;;12.20;;
56136;SDS011;42008;52.934;5.884;2023-05-10T02:52:00;13.63;;;12.07;;
56136;SDS011;42008;52.934;5.884;2023-05-10T02:54:30;16.17;;;11.97;;
56136;SDS011;42008;52.934;5.884;2023-05-10T02:56:58;12.87;;;10.00;;
56136;SDS011;42008;52.934;5.884;2023-05-10T02:59:26;17.23;;;12.70;;
56136;SDS011;42008;52.934;5.884;2023-05-10T03:01:52;14.83;;;12.20;;
56136;SDS011;42008;52.934;5.884;2023-05-10T03:04:17;10.47;;;8.30;;
56136;SDS011;42008;52.934;5.884;2023-05-10T03:06:43;7.03;;;6.00;;
56136;SDS011;42008;52.934;5.884;2023-05-10T03:09:09;7.57;;;6.37;;
56136;SDS011;42008;52.934;5.884;2023-05-10T03:19:45;8.33;;;7.17;;
56136;SDS011;42008;52.934;5.884;2023-05-10T03:22:23;11.03;;;9.53;;
56136;SDS011;42008;52.934;5.884;2023-05-10T03:24:53;8.07;;;7.10;;
56136;SDS011;42008;52.934;5.884;2023-05-10T03:27:22;8.80;;;7.80;;
56136;SDS011;42008;52.934;5.884;2023-05-10T03:29:48;13.23;;;9.80;;
56136;SDS011;42008;52.934;5.884;2023-05-10T03:32:16;10.87;;;8.03;;
56136;SDS011;42008;52.934;5.884;2023-05-10T03:34:42;7.63;;;6.70;;
56136;SDS011;42008;52.934;5.884;2023-05-10T03:37:08;7.53;;;6.30;;
56136;SDS011;42008;52.934;5.884;2023-05-10T03:39:34;8.83;;;7.07;;
56136;SDS011;42008;52.934;5.884;2023-05-10T03:41:59;8.23;;;6.93;;
56136;SDS011;42008;52.934;5.884;2023-05-10T03:44:25;8.27;;;6.77;;
56136;SDS011;42008;52.934;5.884;2023-05-10T03:46:51;7.33;;;6.60;;
56136;SDS011;42008;52.934;5.884;2023-05-10T03:49:17;7.77;;;6.93;;
56136;SDS011;42008;52.934;5.884;2023-05-10T03:51:43;8.50;;;7.70;;
56136;SDS011;42008;52.934;5.884;2023-05-10T03:54:08;8.40;;;7.60;;
56136;SDS011;42008;52.934;5.884;2023-05-10T03:56:34;9.73;;;8.70;;
56136;SDS011;42008;52.934;5.884;2023-05-10T03:58:59;10.63;;;9.53;;
56136;SDS011;42008;52.934;5.884;2023-05-10T04:01:25;10.83;;;9.70;;
56136;SDS011;42008;52.934;5.884;2023-05-10T04:03:51;12.07;;;10.87;;
56136;SDS011;42008;52.934;5.884;2023-05-10T04:06:16;12.50;;;11.07;;
56136;SDS011;42008;52.934;5.884;2023-05-10T04:08:42;13.20;;;11.77;;
56136;SDS011;42008;52.934;5.884;2023-05-10T04:11:08;12.77;;;11.03;;
56136;SDS011;42008;52.934;5.884;2023-05-10T04:13:35;13.30;;;11.27;;
56136;SDS011;42008;52.934;5.884;2023-05-10T04:16:01;11.93;;;9.90;;
56136;SDS011;42008;52.934;5.884;2023-05-10T04:18:27;14.37;;;12.23;;
56136;SDS011;42008;52.934;5.884;2023-05-10T04:20:53;12.10;;;10.93;;
56136;SDS011;42008;52.934;5.884;2023-05-10T04:23:18;12.93;;;11.63;;
56136;SDS011;42008;52.934;5.884;2023-05-10T04:25:44;14.60;;;12.87;;
56136;SDS011;42008;52.934;5.884;2023-05-10T04:28:09;11.80;;;10.70;;
56136;SDS011;42008;52.934;5.884;2023-05-10T04:30:35;12.90;;;11.60;;
56136;SDS011;42008;52.934;5.884;2023-05-10T04:33:00;14.00;;;12.60;;
56136;SDS011;42008;52.934;5.884;2023-05-10T04:35:29;14.20;;;12.77;;
56136;SDS011;42008;52.934;5.884;2023-05-10T04:37:55;11.83;;;10.63;;
56136;SDS011;42008;52.934;5.884;2023-05-10T04:40:21;11.13;;;10.10;;
56136;SDS011;42008;52.934;5.884;2023-05-10T04:42:47;12.83;;;11.03;;
56136;SDS011;42008;52.934;5.884;2023-05-10T04:45:12;12.33;;;11.00;;
56136;SDS011;42008;52.934;5.884;2023-05-10T04:47:39;10.63;;;8.57;;
56136;SDS011;42008;52.934;5.884;2023-05-10T04:50:05;9.30;;;7.87;;
56136;SDS011;42008;52.934;5.884;2023-05-10T04:52:32;7.07;;;5.87;;
56136;SDS011;42008;52.934;5.884;2023-05-10T04:54:57;5.83;;;5.23;;
56136;SDS011;42008;52.934;5.884;2023-05-10T04:57:23;5.50;;;5.00;;
56136;SDS011;42008;52.934;5.884;2023-05-10T04:59:48;7.47;;;5.03;;
56136;SDS011;42008;52.934;5.884;2023-05-10T05:02:14;5.43;;;4.93;;
56136;SDS011;42008;52.934;5.884;2023-05-10T05:04:39;5.83;;;5.20;;
56136;SDS011;42008;52.934;5.884;2023-05-10T05:07:05;5.77;;;4.73;;
56136;SDS011;42008;52.934;5.884;2023-05-10T05:09:31;5.83;;;5.23;;
56136;SDS011;42008;52.934;5.884;2023-05-10T05:11:59;7.60;;;5.97;;
56136;SDS011;42008;52.934;5.884;2023-05-10T05:14:25;8.53;;;6.40;;
56136;SDS011;42008;52.934;5.884;2023-05-10T05:16:51;7.60;;;6.60;;
56136;SDS011;42008;52.934;5.884;2023-05-10T05:19:17;7.93;;;6.40;;
56136;SDS011;42008;52.934;5.884;2023-05-10T05:21:42;7.00;;;6.30;;
56136;SDS011;42008;52.934;5.884;2023-05-10T05:24:08;6.73;;;6.03;;
56136;SDS011;42008;52.934;5.884;2023-05-10T05:26:35;8.33;;;6.70;;
56136;SDS011;42008;52.934;5.884;2023-05-10T05:29:01;7.63;;;6.30;;
56136;SDS011;42008;52.934;5.884;2023-05-10T05:31:27;8.17;;;6.50;;
56136;SDS011;42008;52.934;5.884;2023-05-10T05:33:52;7.13;;;5.97;;
56136;SDS011;42008;52.934;5.884;2023-05-10T05:36:19;8.67;;;6.63;;
56136;SDS011;42008;52.934;5.884;2023-05-10T05:38:44;7.50;;;6.70;;
56136;SDS011;42008;52.934;5.884;2023-05-10T05:41:10;8.40;;;7.60;;
56136;SDS011;42008;52.934;5.884;2023-05-10T05:43:36;8.60;;;7.70;;
56136;SDS011;42008;52.934;5.884;2023-05-10T05:46:01;9.03;;;7.50;;
56136;SDS011;42008;52.934;5.884;2023-05-10T05:48:27;10.57;;;7.80;;
56136;SDS011;42008;52.934;5.884;2023-05-10T05:50:54;9.97;;;7.60;;
56136;SDS011;42008;52.934;5.884;2023-05-10T05:53:21;8.30;;;7.20;;
56136;SDS011;42008;52.934;5.884;2023-05-10T05:55:51;7.43;;;6.03;;
56136;SDS011;42008;52.934;5.884;2023-05-10T05:58:18;5.97;;;5.20;;
56136;SDS011;42008;52.934;5.884;2023-05-10T06:00:43;7.63;;;5.20;;
56136;SDS011;42008;52.934;5.884;2023-05-10T06:03:09;6.30;;;4.80;;
56136;SDS011;42008;52.934;5.884;2023-05-10T06:05:35;6.70;;;5.03;;
56136;SDS011;42008;52.934;5.884;2023-05-10T06:08:01;5.60;;;4.73;;
56136;SDS011;42008;52.934;5.884;2023-05-10T06:10:26;6.50;;;4.87;;
56136;SDS011;42008;52.934;5.884;2023-05-10T06:12:52;7.87;;;4.67;;
56136;SDS011;42008;52.934;5.884;2023-05-10T06:15:18;5.93;;;5.30;;
56136;SDS011;42008;52.934;5.884;2023-05-10T06:17:43;5.07;;;4.13;;
56136;SDS011;42008;52.934;5.884;2023-05-10T06:20:09;5.90;;;4.60;;
56136;SDS011;42008;52.934;5.884;2023-05-10T06:22:35;5.83;;;4.37;;
56136;SDS011;42008;52.934;5.884;2023-05-10T06:25:01;4.57;;;3.63;;
56136;SDS011;42008;52.934;5.884;2023-05-10T06:27:27;5.60;;;4.60;;
56136;SDS011;42008;52.934;5.884;2023-05-10T06:29:53;5.83;;;3.90;;
56136;SDS011;42008;52.934;5.884;2023-05-10T06:32:18;5.10;;;4.00;;
56136;SDS011;42008;52.934;5.884;2023-05-10T06:34:44;6.13;;;4.57;;
56136;SDS011;42008;52.934;5.884;2023-05-10T06:37:09;5.13;;;3.97;;
56136;SDS011;42008;52.934;5.884;2023-05-10T06:39:35;5.27;;;3.80;;
56136;SDS011;42008;52.934;5.884;2023-05-10T06:42:01;4.97;;;4.27;;
56136;SDS011;42008;52.934;5.884;2023-05-10T06:44:27;6.80;;;4.23;;
56136;SDS011;42008;52.934;5.884;2023-05-10T06:46:53;6.00;;;4.67;;
56136;SDS011;42008;52.934;5.884;2023-05-10T06:49:20;6.63;;;5.10;;
56136;SDS011;42008;52.934;5.884;2023-05-10T06:51:45;6.43;;;5.30;;
56136;SDS011;42008;52.934;5.884;2023-05-10T06:54:11;7.43;;;5.57;;
56136;SDS011;42008;52.934;5.884;2023-05-10T06:56:36;5.30;;;4.30;;
56136;SDS011;42008;52.934;5.884;2023-05-10T06:59:02;6.17;;;4.60;;
56136;SDS011;42008;52.934;5.884;2023-05-10T07:01:28;5.63;;;4.47;;
56136;SDS011;42008;52.934;5.884;2023-05-10T07:03:53;6.50;;;5.10;;
56136;SDS011;42008;52.934;5.884;2023-05-10T07:06:19;5.13;;;4.47;;
56136;SDS011;42008;52.934;5.884;2023-05-10T07:08:45;4.83;;;4.33;;
56136;SDS011;42008;52.934;5.884;2023-05-10T07:11:10;5.33;;;4.60;;
56136;SDS011;42008;52.934;5.884;2023-05-10T07:13:36;9.73;;;5.97;;
56136;SDS011;42008;52.934;5.884;2023-05-10T07:16:03;8.77;;;6.17;;
56136;SDS011;42008;52.934;5.884;2023-05-10T07:18:31;6.73;;;5.70;;
56136;SDS011;42008;52.934;5.884;2023-05-10T07:20:57;7.67;;;6.23;;
56136;SDS011;42008;52.934;5.884;2023-05-10T07:23:22;6.07;;;5.47;;
56136;SDS011;42008;52.934;5.884;2023-05-10T07:25:49;5.63;;;4.80;;
56136;SDS011;42008;52.934;5.884;2023-05-10T07:28:17;6.50;;;4.97;;
56136;SDS011;42008;52.934;5.884;2023-05-10T07:30:42;5.33;;;4.60;;
56136;SDS011;42008;52.934;5.884;2023-05-10T07:33:08;5.60;;;4.70;;
56136;SDS011;42008;52.934;5.884;2023-05-10T07:35:36;5.60;;;4.87;;
56136;SDS011;42008;52.934;5.884;2023-05-10T07:38:02;8.00;;;5.13;;
56136;SDS011;42008;52.934;5.884;2023-05-10T07:40:27;7.10;;;5.67;;
56136;SDS011;42008;52.934;5.884;2023-05-10T07:42:53;7.73;;;5.43;;
56136;SDS011;42008;52.934;5.884;2023-05-10T07:45:18;6.10;;;5.50;;
56136;SDS011;42008;52.934;5.884;2023-05-10T07:47:44;8.57;;;5.97;;
56136;SDS011;42008;52.934;5.884;2023-05-10T07:50:10;5.80;;;4.27;;
56136;SDS011;42008;52.934;5.884;2023-05-10T07:52:35;5.37;;;4.47;;
56136;SDS011;42008;52.934;5.884;2023-05-10T07:55:01;5.40;;;4.07;;
56136;SDS011;42008;52.934;5.884;2023-05-10T07:57:27;4.77;;;3.47;;
56136;SDS011;42008;52.934;5.884;2023-05-10T07:59:52;4.40;;;3.73;;
56136;SDS011;42008;52.934;5.884;2023-05-10T08:02:18;6.47;;;3.90;;
56136;SDS011;42008;52.934;5.884;2023-05-10T08:04:43;5.63;;;4.00;;
56136;SDS011;42008;52.934;5.884;2023-05-10T08:07:09;4.60;;;3.90;;
56136;SDS011;42008;52.934;5.884;2023-05-10T08:09:35;5.43;;;4.30;;
56136;SDS011;42008;52.934;5.884;2023-05-10T08:12:01;6.70;;;4.00;;
56136;SDS011;42008;52.934;5.884;2023-05-10T08:14:30;5.60;;;4.13;;
56136;SDS011;42008;52.934;5.884;2023-05-10T08:16:55;5.50;;;4.13;;
56136;SDS011;42008;52.934;5.884;2023-05-10T08:19:21;6.67;;;5.00;;
56136;SDS011;42008;52.934;5.884;2023-05-10T08:21:47;6.50;;;5.63;;
56136;SDS011;42008;52.934;5.884;2023-05-10T08:24:13;8.33;;;7.10;;
56136;SDS011;42008;52.934;5.884;2023-05-10T08:26:39;8.30;;;7.03;;
56136;SDS011;42008;52.934;5.884;2023-05-10T08:29:04;8.90;;;7.07;;
56136;SDS011;42008;52.934;5.884;2023-05-10T08:31:30;8.10;;;6.77;;
56136;SDS011;42008;52.934;5.884;2023-05-10T08:33:56;7.80;;;6.50;;
56136;SDS011;42008;52.934;5.884;2023-05-10T08:36:21;7.13;;;5.23;;
56136;SDS011;42008;52.934;5.884;2023-05-10T08:38:52;5.93;;;5.30;;
56136;SDS011;42008;52.934;5.884;2023-05-10T08:41:22;8.53;;;5.70;;
56136;SDS011;42008;52.934;5.884;2023-05-10T08:43:52;6.77;;;4.87;;
56136;SDS011;42008;52.934;5.884;2023-05-10T08:46:19;7.67;;;5.33;;
56136;SDS011;42008;52.934;5.884;2023-05-10T08:48:46;7.07;;;4.97;;
56136;SDS011;42008;52.934;5.884;2023-05-10T08:51:14;8.77;;;5.40;;
56136;SDS011;42008;52.934;5.884;2023-05-10T08:53:43;7.57;;;5.53;;
56136;SDS011;42008;52.934;5.884;2023-05-10T08:56:09;8.23;;;5.40;;
56136;SDS011;42008;52.934;5.884;2023-05-10T08:58:35;7.67;;;4.17;;
56136;SDS011;42008;52.934;5.884;2023-05-10T09:01:01;5.57;;;4.03;;
56136;SDS011;42008;52.934;5.884;2023-05-10T09:03:28;6.23;;;4.33;;
56136;SDS011;42008;52.934;5.884;2023-05-10T09:05:53;6.37;;;4.20;;
56136;SDS011;42008;52.934;5.884;2023-05-10T09:08:24;5.53;;;3.93;;
56136;SDS011;42008;52.934;5.884;2023-05-10T09:10:54;5.60;;;4.07;;
56136;SDS011;42008;52.934;5.884;2023-05-10T09:13:20;5.63;;;4.10;;
56136;SDS011;42008;52.934;5.884;2023-05-10T09:15:47;5.83;;;3.67;;
56136;SDS011;42008;52.934;5.884;2023-05-10T09:18:13;6.30;;;4.00;;
56136;SDS011;42008;52.934;5.884;2023-05-10T09:20:39;5.53;;;4.10;;
56136;SDS011;42008;52.934;5.884;2023-05-10T09:23:05;5.90;;;3.50;;
56136;SDS011;42008;52.934;5.884;2023-05-10T09:25:31;4.20;;;3.37;;
56136;SDS011;42008;52.934;5.884;2023-05-10T09:27:58;5.10;;;3.47;;
56136;SDS011;42008;52.934;5.884;2023-05-10T09:30:25;4.73;;;3.30;;
56136;SDS011;42008;52.934;5.884;2023-05-10T09:32:53;4.53;;;3.13;;
56136;SDS011;42008;52.934;5.884;2023-05-10T09:35:21;4.17;;;3.00;;
56136;SDS011;42008;52.934;5.884;2023-05-10T09:37:52;5.10;;;3.07;;
56136;SDS011;42008;52.934;5.884;2023-05-10T09:40:20;4.68;;;3.35;;
56136;SDS011;42008;52.934;5.884;2023-05-10T09:42:57;4.47;;;3.20;;
56136;SDS011;42008;52.934;5.884;2023-05-10T09:45:23;4.67;;;3.40;;
56136;SDS011;42008;52.934;5.884;2023-05-10T09:47:53;5.47;;;3.80;;
56136;SDS011;42008;52.934;5.884;2023-05-10T09:50:20;7.90;;;3.73;;
56136;SDS011;42008;52.934;5.884;2023-05-10T09:55:19;5.67;;;3.97;;
56136;SDS011;42008;52.934;5.884;2023-05-10T09:57:47;4.47;;;3.77;;
56136;SDS011;42008;52.934;5.884;2023-05-10T10:00:17;4.87;;;3.20;;
56136;SDS011;42008;52.934;5.884;2023-05-10T10:02:44;4.67;;;2.93;;
56136;SDS011;42008;52.934;5.884;2023-05-10T10:05:12;6.07;;;3.20;;
56136;SDS011;42008;52.934;5.884;2023-05-10T10:07:38;6.53;;;3.60;;
56136;SDS011;42008;52.934;5.884;2023-05-10T10:10:04;4.93;;;3.90;;
56136;SDS011;42008;52.934;5.884;2023-05-10T10:12:30;9.77;;;6.30;;
56136;SDS011;42008;52.934;5.884;2023-05-10T10:14:56;8.43;;;6.33;;
56136;SDS011;42008;52.934;5.884;2023-05-10T10:17:24;10.37;;;7.23;;
56136;SDS011;42008;52.934;5.884;2023-05-10T10:19:52;12.90;;;7.87;;
56136;SDS011;42008;52.934;5.884;2023-05-10T10:22:17;9.57;;;7.93;;
56136;SDS011;42008;52.934;5.884;2023-05-10T10:24:43;10.77;;;8.30;;
56136;SDS011;42008;52.934;5.884;2023-05-10T10:27:19;12.07;;;8.40;;
56136;SDS011;42008;52.934;5.884;2023-05-10T10:29:52;13.07;;;8.70;;
56136;SDS011;42008;52.934;5.884;2023-05-10T10:35:31;17.23;;;10.93;;
56136;SDS011;42008;52.934;5.884;2023-05-10T10:37:57;16.33;;;11.37;;
56136;SDS011;42008;52.934;5.884;2023-05-10T10:40:27;16.33;;;11.90;;
56136;SDS011;42008;52.934;5.884;2023-05-10T10:42:54;16.33;;;12.27;;
56136;SDS011;42008;52.934;5.884;2023-05-10T10:45:21;17.77;;;11.93;;
56136;SDS011;42008;52.934;5.884;2023-05-10T10:47:47;16.57;;;12.20;;
56136;SDS011;42008;52.934;5.884;2023-05-10T10:50:13;17.07;;;12.03;;
56136;SDS011;42008;52.934;5.884;2023-05-10T10:52:41;17.33;;;11.67;;
56136;SDS011;42008;52.934;5.884;2023-05-10T11:08:07;17.63;;;13.27;;
56136;SDS011;42008;52.934;5.884;2023-05-10T11:10:37;16.67;;;13.37;;
56136;SDS011;42008;52.934;5.884;2023-05-10T11:13:04;17.13;;;14.57;;
56136;SDS011;42008;52.934;5.884;2023-05-10T11:15:32;18.70;;;15.53;;
56136;SDS011;42008;52.934;5.884;2023-05-10T11:17:58;19.03;;;14.03;;
56136;SDS011;42008;52.934;5.884;2023-05-10T11:20:28;20.50;;;14.77;;
56136;SDS011;42008;52.934;5.884;2023-05-10T11:23:13;16.87;;;13.80;;
56136;SDS011;42008;52.934;5.884;2023-05-10T11:25:44;15.67;;;12.80;;
56136;SDS011;42008;52.934;5.884;2023-05-10T11:28:11;15.40;;;12.60;;
56136;SDS011;42008;52.934;5.884;2023-05-10T11:30:41;17.80;;;13.40;;
56136;SDS011;42008;52.934;5.884;2023-05-10T11:33:08;15.17;;;12.20;;
56136;SDS011;42008;52.934;5.884;2023-05-10T11:35:38;14.43;;;11.27;;
56136;SDS011;42008;52.934;5.884;2023-05-10T11:38:05;15.00;;;12.17;;
56136;SDS011;42008;52.934;5.884;2023-05-10T11:40:35;15.70;;;12.97;;
56136;SDS011;42008;52.934;5.884;2023-05-10T11:43:01;16.17;;;12.83;;
56136;SDS011;42008;52.934;5.884;2023-05-10T11:45:28;17.40;;;13.43;;
56136;SDS011;42008;52.934;5.884;2023-05-10T11:47:56;16.97;;;12.43;;
56136;SDS011;42008;52.934;5.884;2023-05-10T11:50:22;16.07;;;11.50;;
56136;SDS011;42008;52.934;5.884;2023-05-10T11:52:51;16.57;;;11.50;;
56136;SDS011;42008;52.934;5.884;2023-05-10T11:55:21;19.10;;;12.70;;
56136;SDS011;42008;52.934;5.884;2023-05-10T11:57:47;14.73;;;11.37;;
56136;SDS011;42008;52.934;5.884;2023-05-10T12:00:16;13.97;;;11.77;;
56136;SDS011;42008;52.934;5.884;2023-05-10T12:02:41;15.87;;;12.33;;
56136;SDS011;42008;52.934;5.884;2023-05-10T12:05:08;15.80;;;13.17;;
56136;SDS011;42008;52.934;5.884;2023-05-10T12:07:34;17.47;;;13.33;;
56136;SDS011;42008;52.934;5.884;2023-05-10T12:10:06;14.63;;;13.10;;
56136;SDS011;42008;52.934;5.884;2023-05-10T12:15:19;19.67;;;13.50;;
56136;SDS011;42008;52.934;5.884;2023-05-10T12:17:46;16.07;;;12.57;;
56136;SDS011;42008;52.934;5.884;2023-05-10T12:20:13;14.90;;;12.53;;
56136;SDS011;42008;52.934;5.884;2023-05-10T12:22:46;15.57;;;12.17;;
56136;SDS011;42008;52.934;5.884;2023-05-10T12:25:12;15.23;;;12.23;;
56136;SDS011;42008;52.934;5.884;2023-05-10T12:27:38;13.63;;;11.53;;
56136;SDS011;42008;52.934;5.884;2023-05-10T12:30:03;15.23;;;12.67;;
56136;SDS011;42008;52.934;5.884;2023-05-10T12:32:39;15.33;;;13.00;;
56136;SDS011;42008;52.934;5.884;2023-05-10T12:35:06;17.80;;;13.17;;
56136;SDS011;42008;52.934;5.884;2023-05-10T12:37:32;14.50;;;12.30;;
56136;SDS011;42008;52.934;5.884;2023-05-10T12:40:04;15.57;;;12.73;;
56136;SDS011;42008;52.934;5.884;2023-05-10T12:42:31;17.43;;;12.73;;
56136;SDS011;42008;52.934;5.884;2023-05-10T12:44:57;15.03;;;12.07;;
56136;SDS011;42008;52.934;5.884;2023-05-10T12:47:23;13.43;;;10.90;;
56136;SDS011;42008;52.934;5.884;2023-05-10T12:49:51;14.57;;;11.67;;
56136;SDS011;42008;52.934;5.884;2023-05-10T12:52:16;12.40;;;9.60;;
56136;SDS011;42008;52.934;5.884;2023-05-10T12:54:42;12.13;;;9.90;;
56136;SDS011;42008;52.934;5.884;2023-05-10T12:57:07;10.83;;;9.23;;
56136;SDS011;42008;52.934;5.884;2023-05-10T12:59:33;14.07;;;9.00;;
56136;SDS011;42008;52.934;5.884;2023-05-10T13:01:59;11.00;;;9.50;;
56136;SDS011;42008;52.934;5.884;2023-05-10T13:04:24;8.37;;;7.17;;
56136;SDS011;42008;52.934;5.884;2023-05-10T13:06:50;8.33;;;6.97;;
56136;SDS011;42008;52.934;5.884;2023-05-10T13:09:15;8.40;;;5.63;;
56136;SDS011;42008;52.934;5.884;2023-05-10T13:11:41;9.20;;;5.30;;
56136;SDS011;42008;52.934;5.884;2023-05-10T13:14:07;6.23;;;4.50;;
56136;SDS011;42008;52.934;5.884;2023-05-10T13:16:32;5.87;;;4.80;;
56136;SDS011;42008;52.934;5.884;2023-05-10T13:18:58;5.40;;;3.40;;
56136;SDS011;42008;52.934;5.884;2023-05-10T13:21:23;6.50;;;3.90;;
56136;SDS011;42008;52.934;5.884;2023-05-10T13:23:50;6.07;;;4.23;;
56136;SDS011;42008;52.934;5.884;2023-05-10T13:26:15;5.57;;;3.93;;
56136;SDS011;42008;52.934;5.884;2023-05-10T13:28:41;6.03;;;3.37;;
56136;SDS011;42008;52.934;5.884;2023-05-10T13:31:07;5.33;;;3.77;;
56136;SDS011;42008;52.934;5.884;2023-05-10T13:33:32;4.70;;;3.63;;
56136;SDS011;42008;52.934;5.884;2023-05-10T13:35:58;5.63;;;3.87;;
56136;SDS011;42008;52.934;5.884;2023-05-10T13:38:23;7.13;;;4.20;;
56136;SDS011;42008;52.934;5.884;2023-05-10T13:40:49;5.47;;;4.00;;
56136;SDS011;42008;52.934;5.884;2023-05-10T13:43:17;7.60;;;3.90;;
56136;SDS011;42008;52.934;5.884;2023-05-10T13:45:43;5.60;;;3.83;;
56136;SDS011;42008;52.934;5.884;2023-05-10T13:48:09;6.20;;;4.50;;
56136;SDS011;42008;52.934;5.884;2023-05-10T13:50:34;8.40;;;4.40;;
56136;SDS011;42008;52.934;5.884;2023-05-10T13:53:00;5.43;;;3.80;;
56136;SDS011;42008;52.934;5.884;2023-05-10T13:55:25;6.93;;;4.27;;
56136;SDS011;42008;52.934;5.884;2023-05-10T13:57:51;6.20;;;3.90;;
56136;SDS011;42008;52.934;5.884;2023-05-10T14:00:17;6.67;;;4.30;;
56136;SDS011;42008;52.934;5.884;2023-05-10T14:02:42;5.53;;;3.77;;
56136;SDS011;42008;52.934;5.884;2023-05-10T14:05:08;5.30;;;3.57;;
56136;SDS011;42008;52.934;5.884;2023-05-10T14:07:34;8.70;;;5.50;;
56136;SDS011;42008;52.934;5.884;2023-05-10T14:09:59;7.13;;;4.90;;
56136;SDS011;42008;52.934;5.884;2023-05-10T14:12:25;6.93;;;5.37;;
56136;SDS011;42008;52.934;5.884;2023-05-10T14:14:51;8.90;;;7.27;;
56136;SDS011;42008;52.934;5.884;2023-05-10T14:17:17;7.77;;;5.93;;
56136;SDS011;42008;52.934;5.884;2023-05-10T14:19:42;8.87;;;6.23;;
56136;SDS011;42008;52.934;5.884;2023-05-10T14:22:08;9.43;;;6.47;;
56136;SDS011;42008;52.934;5.884;2023-05-10T14:24:34;11.20;;;6.70;;
56136;SDS011;42008;52.934;5.884;2023-05-10T14:26:59;10.97;;;6.20;;
56136;SDS011;42008;52.934;5.884;2023-05-10T14:29:25;8.93;;;6.80;;
56136;SDS011;42008;52.934;5.884;2023-05-10T14:31:51;9.97;;;7.73;;
56136;SDS011;42008;52.934;5.884;2023-05-10T14:34:16;10.93;;;7.37;;
56136;SDS011;42008;52.934;5.884;2023-05-10T14:36:42;10.43;;;7.80;;
56136;SDS011;42008;52.934;5.884;2023-05-10T14:39:08;14.40;;;8.00;;
56136;SDS011;42008;52.934;5.884;2023-05-10T14:41:35;10.40;;;7.80;;
56136;SDS011;42008;52.934;5.884;2023-05-10T14:44:00;12.23;;;8.30;;
56136;SDS011;42008;52.934;5.884;2023-05-10T14:46:28;11.33;;;7.93;;
56136;SDS011;42008;52.934;5.884;2023-05-10T14:48:54;10.90;;;7.77;;
56136;SDS011;42008;52.934;5.884;2023-05-10T14:51:20;9.10;;;6.83;;
56136;SDS011;42008;52.934;5.884;2023-05-10T14:53:47;13.60;;;8.83;;
56136;SDS011;42008;52.934;5.884;2023-05-10T14:56:14;13.47;;;9.70;;
56136;SDS011;42008;52.934;5.884;2023-05-10T14:58:39;12.90;;;10.10;;
56136;SDS011;42008;52.934;5.884;2023-05-10T15:01:05;16.27;;;10.23;;
56136;SDS011;42008;52.934;5.884;2023-05-10T15:03:31;14.20;;;9.80;;
56136;SDS011;42008;52.934;5.884;2023-05-10T15:05:56;12.40;;;9.00;;
56136;SDS011;42008;52.934;5.884;2023-05-10T15:08:22;10.97;;;8.50;;
56136;SDS011;42008;52.934;5.884;2023-05-10T15:10:51;11.07;;;8.40;;
56136;SDS011;42008;52.934;5.884;2023-05-10T15:13:17;10.53;;;8.47;;
56136;SDS011;42008;52.934;5.884;2023-05-10T15:15:42;11.70;;;8.57;;
56136;SDS011;42008;52.934;5.884;2023-05-10T15:18:08;13.40;;;10.10;;
56136;SDS011;42008;52.934;5.884;2023-05-10T15:20:34;14.00;;;10.10;;